Página principal
METAR-TAF:

METAR-TAF

Aeroportos :

Rabat, Marrocos

latitude: 34-03N, longitude: 006-46W, altura: 84 m

Observação actual do tempo

O boletim foi feito há 16 minutos, às 06:00 UTC
Vento 1 kt de sudeste
Temperatura 13°C
Humidade 88%
Pressão 1013 hPa
Visibilidade: 8000 m
Nuvens dispersasa uma altura de 2600 ft
Nuvens fragmentadasa uma altura de 10000 ft

METAR: GMME 260600Z 13001KT 8000 SCT026 BKN100 13/11 Q1013 NOSIG

Hora: 06:16 (06:16 UTC)

Previsão

O boletim foi feito há 1 hora e 16 minutos, às 05:00 UTC
Previsão válida de 25 às 06 UTC a 26 às 12 UTC
Vento 14 kt de oes-noroeste
Visibilidade: 8000 m
Nuvens dispersasa uma altura de 1300 ft
Nuvens dispersasa uma altura de 2000 ft

TAF: GMME 260500Z 2506/2612 30014KT 8000 SCT013 SCT020

Observações e previsões do tempo de mais de 4000 aeroportos (mensagens METAR e TAF).

As estações disponíveis são os pontos amarelos e vermelhos sobre o mapa.

Mova o rato sobre o mapa para ver o nome da estação.

Depois clique no ponto para visualizar as observações e previsões meteorológicas.

Para alterar o mapa : clique nos botões verdes com uma cruz preta para aumentar o zoom; no botão verde com uma pitada de zoom; ou nas setas verdes para mapas adjacentes.


METAR-TAF: